createdAt,value
2022-11-20T00:01:42.705Z,95837.03
2022-11-20T00:04:13.196Z,95831.00
2022-11-20T00:06:41.598Z,95841.66
2022-11-20T00:09:12.592Z,95834.66
2022-11-20T00:11:41.097Z,95836.28
2022-11-20T00:14:13.254Z,95844.59
2022-11-20T00:16:41.648Z,95837.94
2022-11-20T00:19:10.469Z,95841.91
2022-11-20T00:21:38.999Z,95836.16
2022-11-20T00:24:10.360Z,95823.06
2022-11-20T00:26:38.934Z,95833.72
2022-11-20T00:29:07.773Z,95839.09
2022-11-20T00:31:37.722Z,95844.47
2022-11-20T00:34:06.890Z,95835.97
2022-11-20T00:36:36.268Z,95845.69
2022-11-20T00:39:05.496Z,95842.78
2022-11-20T00:41:33.889Z,95843.38
2022-11-20T00:44:03.366Z,95844.00
2022-11-20T00:46:31.753Z,95849.97
2022-11-20T00:49:02.190Z,95831.81
2022-11-20T00:51:31.078Z,95854.44
2022-11-20T00:54:00.975Z,95857.38
2022-11-20T00:56:30.631Z,95854.44
2022-11-20T00:59:02.585Z,95858.53
2022-11-20T01:01:31.678Z,95858.09
2022-11-20T01:04:02.257Z,95859.97
2022-11-20T01:06:32.415Z,95866.59
2022-11-20T01:09:03.911Z,95867.66
2022-11-20T01:11:34.672Z,95879.06
2022-11-20T01:14:05.630Z,95877.28
2022-11-20T01:16:35.299Z,95882.47
2022-11-20T01:19:08.377Z,95894.88
2022-11-20T01:21:39.339Z,95884.97
2022-11-20T01:24:10.029Z,95886.69
2022-11-20T01:26:40.663Z,95895.97
2022-11-20T01:29:11.009Z,95896.34
2022-11-20T01:31:39.851Z,95895.31
2022-11-20T01:34:13.222Z,95890.75
2022-11-20T01:36:42.771Z,95895.09
2022-11-20T01:39:14.338Z,95889.94
2022-11-20T01:42:10.381Z,95891.19
2022-11-20T01:44:53.128Z,95892.22
2022-11-20T01:47:27.615Z,95891.19
2022-11-20T01:50:02.754Z,95883.00
2022-11-20T01:52:38.106Z,95899.63
2022-11-20T01:55:11.622Z,95896.56
2022-11-20T01:57:42.141Z,95897.00
2022-11-20T02:00:15.040Z,95891.63
2022-11-20T02:02:47.938Z,95899.94
2022-11-20T02:05:25.069Z,95890.00
2022-11-20T02:07:56.800Z,95893.75
2022-11-20T02:10:25.610Z,95899.09
2022-11-20T02:13:12.933Z,95900.13
2022-11-20T02:15:42.537Z,95895.38
2022-11-20T02:18:12.611Z,95894.91
2022-11-20T02:20:44.182Z,95895.50
2022-11-20T02:23:15.478Z,95892.81
2022-11-20T02:25:48.272Z,95893.03
2022-11-20T02:28:19.115Z,95885.53
2022-11-20T02:30:47.497Z,95886.59
2022-11-20T02:33:16.978Z,95885.78
2022-11-20T02:35:47.846Z,95878.75
2022-11-20T02:38:17.374Z,95887.84
2022-11-20T02:40:52.693Z,95879.78
2022-11-20T02:43:24.604Z,95883.09
2022-11-20T02:45:53.047Z,95873.16
2022-11-20T02:48:25.138Z,95882.88
2022-11-20T02:50:53.775Z,95868.41
2022-11-20T02:53:23.264Z,95877.28
2022-11-20T02:55:53.006Z,95872.94
2022-11-20T02:58:22.366Z,95871.91
2022-11-20T03:00:51.436Z,95880.78
2022-11-20T03:03:20.446Z,95872.94
2022-11-20T03:05:49.249Z,95868.84
2022-11-20T03:08:17.672Z,95879.59
2022-11-20T03:10:46.516Z,95875.44
2022-11-20T03:13:16.829Z,95874.81
2022-11-20T03:15:45.814Z,95873.31
2022-11-20T03:18:14.655Z,95872.28
2022-11-20T03:20:42.980Z,95873.31
2022-11-20T03:23:12.241Z,95879.50
2022-11-20T03:25:41.009Z,95874.38
2022-11-20T03:28:09.387Z,95878.69
2022-11-20T03:30:39.634Z,95845.50
2022-11-20T03:33:08.032Z,95882.13
2022-11-20T03:35:37.060Z,95885.41
2022-11-20T03:38:05.923Z,95878.34
2022-11-20T03:40:36.466Z,95875.88
2022-11-20T03:43:05.343Z,95871.53
2022-11-20T03:45:33.929Z,95883.03
2022-11-20T03:48:04.597Z,95873.69
2022-11-20T03:50:32.953Z,95877.22
2022-11-20T03:53:01.781Z,95870.34
2022-11-20T03:55:30.921Z,95875.50
2022-11-20T03:57:59.270Z,95875.09
2022-11-20T04:00:28.531Z,95876.53
2022-11-20T04:02:59.857Z,95871.38
2022-11-20T04:05:30.790Z,95880.28
2022-11-20T04:08:00.040Z,95877.59
2022-11-20T04:10:28.851Z,95864.34
2022-11-20T04:12:57.212Z,95879.66
2022-11-20T04:15:26.297Z,95875.34
2022-11-20T04:17:55.905Z,95874.16
2022-11-20T04:20:24.924Z,95865.94
2022-11-20T04:22:56.641Z,95871.31
2022-11-20T04:25:25.493Z,95868.63
2022-11-20T04:27:53.870Z,95871.31
2022-11-20T04:30:23.275Z,95871.91
2022-11-20T04:32:51.620Z,95871.53
2022-11-20T04:35:20.797Z,95862.78
2022-11-20T04:37:49.216Z,95864.66
2022-11-20T04:40:19.410Z,95868.31
2022-11-20T04:42:47.766Z,95870.19
2022-11-20T04:45:16.612Z,95860.50
2022-11-20T04:47:45.262Z,95859.44
2022-11-20T04:50:14.498Z,95859.06
2022-11-20T04:52:42.856Z,95859.28
2022-11-20T04:55:11.546Z,95869.00
2022-11-20T04:57:42.200Z,95865.94
2022-11-20T05:00:11.742Z,95859.16
2022-11-20T05:02:41.141Z,95871.53
2022-11-20T05:05:10.310Z,95868.25
2022-11-20T05:07:38.810Z,95870.09
2022-11-20T05:10:09.197Z,95878.56
2022-11-20T05:12:37.597Z,95880.19
2022-11-20T05:15:08.657Z,95876.03
2022-11-20T05:17:37.215Z,95880.34
2022-11-20T05:20:06.401Z,95884.09
2022-11-20T05:22:35.049Z,95879.75
2022-11-20T05:25:03.407Z,95872.94
2022-11-20T05:27:31.985Z,95876.47
2022-11-20T05:30:00.843Z,95882.88
2022-11-20T05:32:30.550Z,95883.72
2022-11-20T05:34:59.477Z,95885.13
2022-11-20T05:37:28.371Z,95878.34
2022-11-20T05:39:57.270Z,95889.31
2022-11-20T05:42:34.599Z,95875.28
2022-11-20T05:45:05.749Z,95876.31
2022-11-20T05:47:36.471Z,95886.03
2022-11-20T05:50:05.779Z,95886.22
2022-11-20T05:52:34.875Z,95882.13
2022-11-20T05:55:03.298Z,95870.88
2022-11-20T05:57:33.023Z,95883.78
2022-11-20T06:00:01.650Z,95877.59
2022-11-20T06:02:32.755Z,95891.84
2022-11-20T06:05:02.578Z,95890.19
2022-11-20T06:07:31.035Z,95894.53
2022-11-20T06:09:59.858Z,95885.66
2022-11-20T06:12:28.538Z,95894.75
2022-11-20T06:14:57.309Z,95895.81
2022-11-20T06:17:26.152Z,95899.66
2022-11-20T06:19:54.843Z,95895.34
2022-11-20T06:22:24.581Z,95895.56
2022-11-20T06:24:54.006Z,95897.22
2022-11-20T06:27:22.711Z,95903.78
2022-11-20T06:29:51.092Z,95892.22
2022-11-20T06:32:20.342Z,95899.00
2022-11-20T06:34:49.163Z,95903.78
2022-11-20T06:37:17.602Z,95908.78
2022-11-20T06:39:47.308Z,95907.97
2022-11-20T06:42:16.487Z,95911.31
2022-11-20T06:44:45.067Z,95907.59
2022-11-20T06:47:13.919Z,95913.56
2022-11-20T06:49:42.962Z,95915.03
2022-11-20T06:52:11.356Z,95914.22
2022-11-20T06:54:40.319Z,95921.22
2022-11-20T06:57:10.048Z,95921.22
2022-11-20T06:59:38.946Z,95930.13
2022-11-20T07:02:07.447Z,95935.94
2022-11-20T07:04:36.515Z,95927.66
2022-11-20T07:07:04.897Z,95932.81
2022-11-20T07:09:34.793Z,95934.47
2022-11-20T07:12:03.481Z,95930.13
2022-11-20T07:14:33.218Z,95937.75
2022-11-20T07:17:02.363Z,95918.28
2022-11-20T07:19:30.710Z,95932.09
2022-11-20T07:22:00.009Z,95933.72
2022-11-20T07:24:28.529Z,95937.91
2022-11-20T07:26:57.795Z,95934.53
2022-11-20T07:29:26.198Z,95938.88
2022-11-20T07:31:56.611Z,95935.53
2022-11-20T07:34:25.106Z,95941.25
2022-11-20T07:36:53.821Z,95941.25
2022-11-20T07:39:22.390Z,95937.56
2022-11-20T07:41:52.051Z,95934.16
2022-11-20T07:44:20.493Z,95934.69
2022-11-20T07:46:48.846Z,95940.44
2022-11-20T07:49:19.668Z,95938.94
2022-11-20T07:51:51.862Z,95935.59
2022-11-20T07:54:21.445Z,95943.22
2022-11-20T07:56:50.780Z,95938.25
2022-11-20T07:59:19.298Z,95936.91
2022-11-20T08:01:48.387Z,95917.91
2022-11-20T08:04:17.347Z,95942.03
2022-11-20T08:06:48.399Z,95941.88
2022-11-20T08:09:17.164Z,95936.91
2022-11-20T08:12:03.195Z,95928.97
2022-11-20T08:14:31.964Z,95891.16
2022-11-20T08:17:00.322Z,95934.34
2022-11-20T08:19:29.581Z,95935.97
2022-11-20T08:21:59.577Z,95921.56
2022-11-20T08:24:29.006Z,95937.47
2022-11-20T08:27:00.205Z,95927.00
2022-11-20T08:29:29.275Z,95938.50
2022-11-20T08:31:58.216Z,95916.91
2022-11-20T08:34:26.592Z,95931.81
2022-11-20T08:36:55.930Z,95940.69
2022-11-20T08:39:25.741Z,95938.50
2022-11-20T08:41:54.785Z,95927.16
2022-11-20T08:44:23.280Z,95939.19
2022-11-20T08:46:51.970Z,95939.78
2022-11-20T08:49:20.766Z,95945.59
2022-11-20T08:51:53.114Z,95940.06
2022-11-20T08:54:22.962Z,95936.34
2022-11-20T08:56:53.373Z,95943.03
2022-11-20T09:00:04.464Z,95939.78
2022-11-20T09:02:11.178Z,95938.94
2022-11-20T09:04:39.882Z,95939.69
2022-11-20T09:07:08.356Z,95941.56
2022-11-20T09:09:36.942Z,95949.78
2022-11-20T09:12:07.660Z,95941.56
2022-11-20T09:14:36.040Z,95937.00
2022-11-20T09:17:05.436Z,95942.16
2022-11-20T09:22:22.579Z,95934.69
2022-11-20T09:24:51.006Z,95935.06
2022-11-20T09:27:22.629Z,95932.16
2022-11-20T09:29:51.562Z,95939.34
2022-11-20T09:32:20.452Z,95932.91
2022-11-20T09:34:49.156Z,95928.84
2022-11-20T09:37:18.069Z,95939.28
2022-11-20T09:39:46.442Z,95937.91
2022-11-20T09:42:40.305Z,95927.16
2022-11-20T09:45:24.730Z,95928.78
2022-11-20T09:48:12.675Z,95932.53
2022-11-20T09:50:49.345Z,95930.00
2022-11-20T09:53:24.521Z,95921.56
2022-11-20T09:55:53.782Z,95920.44
2022-11-20T09:58:31.433Z,95922.78
2022-11-20T10:01:06.157Z,95922.81
2022-11-20T10:03:43.606Z,95920.94
2022-11-20T10:06:18.111Z,95924.72
2022-11-20T10:08:55.365Z,95924.03
2022-11-20T10:11:34.654Z,95909.25
2022-11-20T10:14:14.655Z,95917.69
2022-11-20T10:17:00.026Z,95931.50
2022-11-20T10:19:45.342Z,95925.53
2022-11-20T10:22:27.823Z,95920.75
2022-11-20T10:24:58.821Z,95922.38
2022-11-20T10:27:54.046Z,95914.81
2022-11-20T10:30:26.581Z,95915.97
2022-11-20T10:33:00.429Z,95924.75
2022-11-20T10:35:37.676Z,95922.50
2022-11-20T10:38:15.306Z,95918.88
2022-11-20T10:40:46.472Z,95909.25
2022-11-20T10:43:21.322Z,95906.69
2022-11-20T10:45:58.869Z,95911.75
2022-11-20T10:48:29.800Z,95911.06
2022-11-20T10:51:13.770Z,95902.06
2022-11-20T10:53:59.789Z,95907.56
2022-11-20T10:56:36.824Z,95897.75
2022-11-20T10:59:21.834Z,95903.56
2022-11-20T11:01:52.603Z,95895.59
2022-11-20T11:04:32.190Z,95898.28
2022-11-20T11:07:08.999Z,95868.31
2022-11-20T11:09:43.267Z,95892.81
2022-11-20T11:12:13.324Z,95895.38
2022-11-20T11:14:46.857Z,95906.28
2022-11-20T11:17:31.592Z,95889.88
2022-11-20T11:20:09.305Z,95878.16
2022-11-20T11:22:47.394Z,95875.22
2022-11-20T11:25:28.594Z,95878.75
2022-11-20T11:27:59.098Z,95875.09
2022-11-20T11:30:31.453Z,95876.28
2022-11-20T11:33:11.725Z,95869.00
2022-11-20T11:35:51.144Z,95879.88
2022-11-20T11:38:25.041Z,95871.09
2022-11-20T11:40:57.417Z,95868.75
2022-11-20T11:43:46.267Z,95874.13
2022-11-20T11:46:27.841Z,95867.91
2022-11-20T11:49:02.409Z,95867.22
2022-11-20T11:51:38.906Z,95865.34
2022-11-20T11:54:16.264Z,95867.22
2022-11-20T11:56:46.310Z,95861.03
2022-11-20T11:59:25.120Z,95864.44
2022-11-20T12:01:59.960Z,95859.28
2022-11-20T12:04:44.311Z,95848.34
2022-11-20T12:07:44.739Z,95848.72
2022-11-20T12:10:14.728Z,95841.56
2022-11-20T12:12:48.059Z,95850.97
2022-11-20T12:15:27.418Z,95849.41
2022-11-20T12:17:56.909Z,95859.38
2022-11-20T12:20:31.155Z,95863.03
2022-11-20T12:23:09.847Z,95851.66
2022-11-20T12:25:41.129Z,95845.94
2022-11-20T12:28:27.393Z,95844.75
2022-11-20T12:31:13.465Z,95855.78
2022-11-20T12:33:56.738Z,95850.38
2022-11-20T12:36:38.915Z,95853.31
2022-11-20T12:39:24.399Z,95849.44
2022-11-20T12:42:33.758Z,95849.09
2022-11-20T12:45:17.023Z,95851.91
2022-11-20T12:47:58.355Z,95855.66
2022-11-20T12:50:53.207Z,95851.91
2022-11-20T12:53:35.869Z,95841.75
2022-11-20T12:56:15.089Z,95832.59
2022-11-20T12:58:50.430Z,95838.94
2022-11-20T13:01:42.108Z,95845.59
2022-11-20T13:04:21.652Z,95843.94
2022-11-20T13:06:51.288Z,95843.38
2022-11-20T13:09:24.651Z,95844.63
2022-11-20T13:12:05.717Z,95852.38
2022-11-20T13:14:39.193Z,95844.31
2022-11-20T13:17:13.706Z,95855.06
2022-11-20T13:19:43.505Z,95839.59
2022-11-20T13:22:12.219Z,95847.47
2022-11-20T13:24:52.840Z,95843.13
2022-11-20T13:27:24.126Z,95842.53
2022-11-20T13:30:05.419Z,95852.50
2022-11-20T13:32:33.975Z,95839.94
2022-11-20T13:35:05.308Z,95829.09
2022-11-20T13:37:36.118Z,95835.50
2022-11-20T13:40:15.506Z,95772.25
2022-11-20T13:42:47.701Z,95825.53
2022-11-20T13:45:26.305Z,95821.00
2022-11-20T13:48:22.951Z,95820.75
2022-11-20T13:51:03.507Z,95830.34
2022-11-20T13:53:54.900Z,95833.28
2022-11-20T13:56:31.410Z,95833.50
2022-11-20T13:59:14.747Z,95756.19
2022-11-20T14:01:48.814Z,95835.03
2022-11-20T14:04:22.903Z,95833.84
2022-11-20T14:06:51.949Z,95829.75
2022-11-20T14:09:29.643Z,95834.53
2022-11-20T14:11:59.716Z,95819.56
2022-11-20T14:14:30.477Z,95832.44
2022-11-20T14:17:08.227Z,95837.00
2022-11-20T14:19:38.785Z,95827.53
2022-11-20T14:22:17.857Z,95825.41
2022-11-20T14:24:47.365Z,95831.38
2022-11-20T14:27:20.476Z,95828.09
2022-11-20T14:29:52.793Z,95821.09
2022-11-20T14:32:24.231Z,95821.91
2022-11-20T14:34:53.330Z,95807.50
2022-11-20T14:37:26.022Z,95812.66
2022-11-20T14:39:56.555Z,95819.69
2022-11-20T14:42:27.713Z,95811.00
2022-11-20T14:44:59.781Z,95812.53
2022-11-20T14:47:31.542Z,95814.97
2022-11-20T14:50:08.664Z,95819.31
2022-11-20T14:52:39.477Z,95825.88
2022-11-20T14:55:10.788Z,95821.09
2022-11-20T14:57:41.844Z,95822.47
2022-11-20T15:00:21.734Z,95821.91
2022-11-20T15:02:52.668Z,95820.75
2022-11-20T15:05:23.615Z,95826.94
2022-11-20T15:08:06.379Z,95820.50
2022-11-20T15:10:35.831Z,95824.47
2022-11-20T15:13:12.745Z,95809.59
2022-11-20T15:15:47.890Z,95825.66
2022-11-20T15:18:18.652Z,95817.81
2022-11-20T15:20:48.586Z,95820.03
2022-11-20T15:23:20.348Z,95835.47
2022-11-20T15:25:49.790Z,95834.41
2022-11-20T15:28:25.672Z,95829.50
2022-11-20T15:30:54.570Z,95834.66
2022-11-20T15:33:23.091Z,95830.78
2022-11-20T15:35:51.977Z,95831.00
2022-11-20T15:38:20.525Z,95830.19
2022-11-20T15:40:49.902Z,95826.22
2022-11-20T15:43:20.334Z,95834.31
2022-11-20T15:45:52.591Z,95832.06
2022-11-20T15:48:24.538Z,95827.25
2022-11-20T15:50:56.267Z,95824.34
2022-11-20T15:53:25.183Z,95830.56
2022-11-20T15:55:53.746Z,95831.59
2022-11-20T15:58:25.674Z,95831.81
2022-11-20T16:00:55.167Z,95833.09
2022-11-20T16:03:24.354Z,95832.06
2022-11-20T16:05:52.776Z,95824.22
2022-11-20T16:08:21.161Z,95822.09
2022-11-20T16:10:49.614Z,95817.34
2022-11-20T16:13:36.869Z,95823.53
2022-11-20T16:16:10.595Z,95811.47
2022-11-20T16:18:39.417Z,95810.41
2022-11-20T16:21:14.148Z,95806.34
2022-11-20T16:23:43.995Z,95810.91
2022-11-20T16:26:13.503Z,95820.03
2022-11-20T16:28:43.127Z,95815.19
2022-11-20T16:31:15.247Z,95822.69
2022-11-20T16:33:45.098Z,95822.91
2022-11-20T16:36:15.095Z,95816.09
2022-11-20T16:38:44.106Z,95817.88
2022-11-20T16:41:15.208Z,95816.00
2022-11-20T16:43:48.587Z,95822.63
2022-11-20T16:46:20.128Z,95818.06
2022-11-20T16:48:55.254Z,95818.78
2022-11-20T16:51:24.393Z,95826.47
2022-11-20T16:53:53.422Z,95819.94
2022-11-20T16:56:23.774Z,95814.06
2022-11-20T16:58:52.954Z,95807.88
2022-11-20T17:01:25.309Z,95812.22
2022-11-20T17:03:59.666Z,95803.91
2022-11-20T17:06:29.954Z,95795.09
2022-11-20T17:08:59.740Z,95802.25
2022-11-20T17:11:29.293Z,95813.63
2022-11-20T17:14:01.013Z,95810.72
2022-11-20T17:16:31.821Z,95804.50
2022-11-20T17:19:03.576Z,95804.03
2022-11-20T17:21:32.668Z,95788.38
2022-11-20T17:24:03.292Z,95796.78
2022-11-20T17:26:32.548Z,95792.00
2022-11-20T17:29:02.403Z,95784.75
2022-11-20T17:31:34.234Z,95785.34
2022-11-20T17:34:02.998Z,95786.84
2022-11-20T17:36:32.884Z,95795.47
2022-11-20T17:39:01.517Z,95786.94
2022-11-20T17:41:31.396Z,95780.22
2022-11-20T17:44:01.367Z,95780.53
2022-11-20T17:46:34.059Z,95771.31
2022-11-20T17:49:03.622Z,95775.78
2022-11-20T17:51:36.547Z,95777.63
2022-11-20T17:54:07.282Z,95770.25
2022-11-20T17:56:54.658Z,95774.56
2022-11-20T17:59:23.645Z,95774.56
2022-11-20T18:01:56.805Z,95768.38
2022-11-20T18:04:28.697Z,95763.34
2022-11-20T18:06:57.861Z,95768.53
2022-11-20T18:09:26.730Z,95761.84
2022-11-20T18:11:55.110Z,95759.16
2022-11-20T18:14:32.991Z,95765.13
2022-11-20T18:17:05.238Z,95768.44
2022-11-20T18:19:40.261Z,95758.59
2022-11-20T18:22:14.330Z,95764.53
2022-11-20T18:24:43.797Z,95758.13
2022-11-20T18:27:16.423Z,95752.72
2022-11-20T18:29:48.508Z,95758.13
2022-11-20T18:32:18.627Z,95759.16
2022-11-20T18:34:47.649Z,95726.75
2022-11-20T18:37:16.629Z,95763.72
2022-11-20T18:39:45.999Z,95761.13
2022-11-20T18:42:33.434Z,95753.38
2022-11-20T18:45:04.679Z,95755.13
2022-11-20T18:47:39.249Z,95748.19
2022-11-20T18:50:09.753Z,95744.34
2022-11-20T18:52:41.804Z,95735.53
2022-11-20T18:55:11.991Z,95748.00
2022-11-20T18:57:41.058Z,95732.72
2022-11-20T19:00:11.023Z,95736.56
2022-11-20T19:05:30.344Z,95731.44
2022-11-20T19:07:58.707Z,95736.06
2022-11-20T19:10:27.670Z,95732.31
2022-11-20T19:12:58.468Z,95738.09
2022-11-20T19:15:28.209Z,95724.88
2022-11-20T19:17:58.770Z,95737.03
2022-11-20T19:20:27.677Z,95728.16
2022-11-20T19:22:56.592Z,95726.75
2022-11-20T19:25:24.964Z,95723.44
2022-11-20T19:27:54.322Z,95717.25
2022-11-20T19:30:22.803Z,95722.63
2022-11-20T19:32:51.619Z,95714.56
2022-11-20T19:35:21.417Z,95712.13
2022-11-20T19:37:50.103Z,95705.09
2022-11-20T19:40:18.957Z,95701.59
2022-11-20T19:42:47.318Z,95704.53
2022-11-20T19:45:16.557Z,95705.78
2022-11-20T19:48:06.701Z,95692.41
2022-11-20T19:50:36.009Z,95702.31
2022-11-20T19:53:04.522Z,95699.88
2022-11-20T19:55:33.449Z,95693.53
2022-11-20T19:58:03.166Z,95697.03
2022-11-20T20:00:33.014Z,95699.59
2022-11-20T20:03:01.589Z,95692.44
2022-11-20T20:05:30.340Z,95691.81
2022-11-20T20:08:00.172Z,95685.72
2022-11-20T20:10:29.065Z,95669.72
2022-11-20T20:12:57.613Z,95692.22
2022-11-20T20:15:26.519Z,95679.84
2022-11-20T20:17:55.334Z,95674.69
2022-11-20T20:20:24.138Z,95678.59
2022-11-20T20:22:52.600Z,95682.69
2022-11-20T20:25:22.959Z,95673.28
2022-11-20T20:27:51.384Z,95675.53
2022-11-20T20:30:20.143Z,95669.47
2022-11-20T20:32:53.266Z,95665.16
2022-11-20T20:35:25.468Z,95669.72
2022-11-20T20:37:53.856Z,95663.53
2022-11-20T20:40:24.731Z,95666.22
2022-11-20T20:42:53.118Z,95663.53
2022-11-20T20:45:22.215Z,95658.34
2022-11-20T20:47:50.586Z,95659.19
2022-11-20T20:50:19.478Z,95658.00
2022-11-20T20:52:48.235Z,95656.56
2022-11-20T20:55:16.735Z,95664.03
2022-11-20T20:57:46.855Z,95647.56
2022-11-20T21:00:16.859Z,95652.72
2022-11-20T21:02:46.607Z,95644.81
2022-11-20T21:05:15.370Z,95643.09
2022-11-20T21:07:58.384Z,95637.50
2022-11-20T21:10:26.993Z,95633.19
2022-11-20T21:12:57.073Z,95644.00
2022-11-20T21:15:25.460Z,95631.84
2022-11-20T21:17:54.031Z,95627.53
2022-11-20T21:20:40.723Z,95624.47
2022-11-20T21:23:10.371Z,95628.13
2022-11-20T21:25:39.525Z,95627.44
2022-11-20T21:28:13.084Z,95632.91
2022-11-20T21:30:44.530Z,95630.94
2022-11-20T21:33:12.913Z,95628.41
2022-11-20T21:35:41.892Z,95608.13
2022-11-20T21:38:10.870Z,95632.28
2022-11-20T21:40:39.444Z,95636.38
2022-11-20T21:43:09.176Z,95636.97
2022-11-20T21:45:38.261Z,95633.69
2022-11-20T21:48:07.392Z,95638.41
2022-11-20T21:50:36.308Z,95626.03
2022-11-20T21:53:04.699Z,95623.09
2022-11-20T21:55:33.546Z,95607.44
2022-11-20T21:58:01.921Z,95620.28
2022-11-20T22:00:31.635Z,95621.09
2022-11-20T22:03:00.338Z,95629.06
2022-11-20T22:05:28.790Z,95642.88
2022-11-20T22:07:57.545Z,95657.09
2022-11-20T22:10:27.895Z,95655.25
2022-11-20T22:13:17.233Z,95635.41
2022-11-20T22:16:00.359Z,95654.34
2022-11-20T22:18:29.712Z,95648.00
2022-11-20T22:20:58.683Z,95657.78
2022-11-20T22:23:27.155Z,95655.94
2022-11-20T22:25:55.816Z,95656.38
2022-11-20T22:28:24.653Z,95660.09
2022-11-20T22:30:54.329Z,95658.00
2022-11-20T22:33:23.479Z,95652.72
2022-11-20T22:35:51.931Z,95653.53
2022-11-20T22:38:20.563Z,95648.03
2022-11-20T22:40:48.949Z,95634.69
2022-11-20T22:43:17.651Z,95639.81
2022-11-20T22:45:46.691Z,95625.59
2022-11-20T22:48:16.814Z,95630.97
2022-11-20T22:50:46.515Z,95616.13
2022-11-20T22:53:15.209Z,95613.66
2022-11-20T22:55:43.589Z,95626.25
2022-11-20T22:58:12.640Z,95618.44
2022-11-20T23:00:41.007Z,95618.19
2022-11-20T23:03:09.866Z,95607.13
2022-11-20T23:05:39.751Z,95617.44
2022-11-20T23:08:08.404Z,95624.09
2022-11-20T23:10:36.820Z,95613.53
2022-11-20T23:13:05.793Z,95611.03
2022-11-20T23:15:35.434Z,95619.09
2022-11-20T23:18:04.237Z,95619.38
2022-11-20T23:20:33.406Z,95621.25
2022-11-20T23:23:03.634Z,95621.72
2022-11-20T23:25:32.257Z,95614.72
2022-11-20T23:28:00.599Z,95626.38
2022-11-20T23:30:29.191Z,95612.97
2022-11-20T23:32:58.370Z,95621.19
2022-11-20T23:35:26.780Z,95604.34
2022-11-20T23:37:55.851Z,95615.13
2022-11-20T23:40:25.540Z,95612.75
2022-11-20T23:43:12.329Z,95611.50
2022-11-20T23:45:40.739Z,95604.94
2022-11-20T23:48:10.097Z,95582.56
2022-11-20T23:50:38.571Z,95605.28
2022-11-20T23:53:08.281Z,95602.25
2022-11-20T23:55:38.042Z,95596.91
2022-11-20T23:58:07.063Z,95595.84
